sensor_id;sensor_type;location;lat;lon;timestamp;P1;durP1;ratioP1;P2;durP2;ratioP2
8279;SDS011;8335;42.646;23.380;2022-08-11T00:01:10;5.55;;;4.88;;
8279;SDS011;8335;42.646;23.380;2022-08-11T00:03:43;6.07;;;5.47;;
8279;SDS011;8335;42.646;23.380;2022-08-11T00:06:12;6.25;;;5.65;;
8279;SDS011;8335;42.646;23.380;2022-08-11T00:08:48;6.28;;;4.85;;
8279;SDS011;8335;42.646;23.380;2022-08-11T00:11:15;8.25;;;5.30;;
8279;SDS011;8335;42.646;23.380;2022-08-11T00:13:45;8.95;;;6.82;;
8279;SDS011;8335;42.646;23.380;2022-08-11T00:16:16;6.28;;;5.40;;
8279;SDS011;8335;42.646;23.380;2022-08-11T00:18:45;8.73;;;5.75;;
8279;SDS011;8335;42.646;23.380;2022-08-11T00:21:14;6.05;;;5.45;;
8279;SDS011;8335;42.646;23.380;2022-08-11T00:23:42;6.53;;;5.65;;
8279;SDS011;8335;42.646;23.380;2022-08-11T00:26:11;6.10;;;5.50;;
8279;SDS011;8335;42.646;23.380;2022-08-11T00:28:39;6.68;;;5.93;;
8279;SDS011;8335;42.646;23.380;2022-08-11T00:31:10;10.80;;;6.18;;
8279;SDS011;8335;42.646;23.380;2022-08-11T00:33:45;6.15;;;5.45;;
8279;SDS011;8335;42.646;23.380;2022-08-11T00:36:14;6.60;;;5.97;;
8279;SDS011;8335;42.646;23.380;2022-08-11T00:38:43;8.30;;;5.95;;
8279;SDS011;8335;42.646;23.380;2022-08-11T00:41:15;8.43;;;6.07;;
8279;SDS011;8335;42.646;23.380;2022-08-11T00:44:03;6.38;;;5.78;;
8279;SDS011;8335;42.646;23.380;2022-08-11T00:46:45;6.93;;;5.85;;
8279;SDS011;8335;42.646;23.380;2022-08-11T00:49:24;6.60;;;6.00;;
8279;SDS011;8335;42.646;23.380;2022-08-11T00:52:17;11.93;;;5.90;;
8279;SDS011;8335;42.646;23.380;2022-08-11T00:55:17;6.90;;;6.30;;
8279;SDS011;8335;42.646;23.380;2022-08-11T01:01:12;5.93;;;5.20;;
8279;SDS011;8335;42.646;23.380;2022-08-11T01:04:10;5.95;;;5.43;;
8279;SDS011;8335;42.646;23.380;2022-08-11T01:07:14;6.55;;;5.88;;
8279;SDS011;8335;42.646;23.380;2022-08-11T01:10:10;8.90;;;6.63;;
8279;SDS011;8335;42.646;23.380;2022-08-11T01:12:54;9.05;;;6.22;;
8279;SDS011;8335;42.646;23.380;2022-08-11T01:21:50;8.25;;;6.07;;
8279;SDS011;8335;42.646;23.380;2022-08-11T01:24:52;7.30;;;6.25;;
8279;SDS011;8335;42.646;23.380;2022-08-11T01:30:48;8.00;;;5.82;;
8279;SDS011;8335;42.646;23.380;2022-08-11T01:34:02;6.70;;;6.10;;
8279;SDS011;8335;42.646;23.380;2022-08-11T01:40:16;7.30;;;6.60;;
8279;SDS011;8335;42.646;23.380;2022-08-11T01:46:25;7.22;;;6.53;;
8279;SDS011;8335;42.646;23.380;2022-08-11T01:49:00;7.22;;;6.47;;
8279;SDS011;8335;42.646;23.380;2022-08-11T01:51:37;9.10;;;6.68;;
8279;SDS011;8335;42.646;23.380;2022-08-11T01:54:26;7.97;;;6.35;;
8279;SDS011;8335;42.646;23.380;2022-08-11T01:57:02;9.85;;;6.55;;
8279;SDS011;8335;42.646;23.380;2022-08-11T01:59:42;9.15;;;6.45;;
8279;SDS011;8335;42.646;23.380;2022-08-11T02:02:25;6.90;;;6.20;;
8279;SDS011;8335;42.646;23.380;2022-08-11T02:05:17;7.90;;;7.10;;
8279;SDS011;8335;42.646;23.380;2022-08-11T02:07:57;8.45;;;6.10;;
8279;SDS011;8335;42.646;23.380;2022-08-11T02:10:32;7.13;;;6.32;;
8279;SDS011;8335;42.646;23.380;2022-08-11T02:13:23;7.22;;;6.53;;
8279;SDS011;8335;42.646;23.380;2022-08-11T02:16:04;7.20;;;6.50;;
8279;SDS011;8335;42.646;23.380;2022-08-11T02:18:40;7.63;;;6.57;;
8279;SDS011;8335;42.646;23.380;2022-08-11T02:21:30;7.30;;;6.60;;
8279;SDS011;8335;42.646;23.380;2022-08-11T02:24:25;8.13;;;6.28;;
8279;SDS011;8335;42.646;23.380;2022-08-11T02:26:59;10.02;;;6.65;;
8279;SDS011;8335;42.646;23.380;2022-08-11T02:29:32;7.85;;;6.55;;
8279;SDS011;8335;42.646;23.380;2022-08-11T02:32:06;7.90;;;7.10;;
8279;SDS011;8335;42.646;23.380;2022-08-11T02:34:59;8.13;;;6.80;;
8279;SDS011;8335;42.646;23.380;2022-08-11T02:37:36;8.32;;;6.68;;
8279;SDS011;8335;42.646;23.380;2022-08-11T02:40:16;10.07;;;6.80;;
8279;SDS011;8335;42.646;23.380;2022-08-11T02:42:54;8.73;;;7.53;;
8279;SDS011;8335;42.646;23.380;2022-08-11T02:45:41;7.90;;;6.88;;
8279;SDS011;8335;42.646;23.380;2022-08-11T02:48:21;8.68;;;6.93;;
8279;SDS011;8335;42.646;23.380;2022-08-11T02:51:24;7.60;;;6.90;;
8279;SDS011;8335;42.646;23.380;2022-08-11T02:54:04;9.70;;;7.50;;
8279;SDS011;8335;42.646;23.380;2022-08-11T02:56:39;10.90;;;6.97;;
8279;SDS011;8335;42.646;23.380;2022-08-11T02:59:16;7.88;;;7.07;;
8279;SDS011;8335;42.646;23.380;2022-08-11T03:02:09;8.27;;;7.25;;
8279;SDS011;8335;42.646;23.380;2022-08-11T03:04:44;8.23;;;7.15;;
8279;SDS011;8335;42.646;23.380;2022-08-11T03:07:24;9.95;;;7.38;;
8279;SDS011;8335;42.646;23.380;2022-08-11T03:10:07;8.68;;;6.90;;
8279;SDS011;8335;42.646;23.380;2022-08-11T03:12:56;7.55;;;6.85;;
8279;SDS011;8335;42.646;23.380;2022-08-11T03:15:50;14.55;;;7.25;;
8279;SDS011;8335;42.646;23.380;2022-08-11T03:18:52;9.80;;;7.22;;
8279;SDS011;8335;42.646;23.380;2022-08-11T03:21:31;8.00;;;7.20;;
8279;SDS011;8335;42.646;23.380;2022-08-11T03:24:04;12.13;;;8.35;;
8279;SDS011;8335;42.646;23.380;2022-08-11T03:26:38;8.45;;;7.25;;
8279;SDS011;8335;42.646;23.380;2022-08-11T03:29:19;13.90;;;7.85;;
8279;SDS011;8335;42.646;23.380;2022-08-11T03:31:57;10.02;;;7.35;;
8279;SDS011;8335;42.646;23.380;2022-08-11T03:34:29;7.53;;;6.72;;
8279;SDS011;8335;42.646;23.380;2022-08-11T03:43:46;8.88;;;7.68;;
8279;SDS011;8335;42.646;23.380;2022-08-11T03:46:23;8.75;;;7.40;;
8279;SDS011;8335;42.646;23.380;2022-08-11T03:49:01;8.70;;;6.72;;
8279;SDS011;8335;42.646;23.380;2022-08-11T03:51:37;7.35;;;6.65;;
8279;SDS011;8335;42.646;23.380;2022-08-11T03:54:13;12.63;;;6.93;;
8279;SDS011;8335;42.646;23.380;2022-08-11T04:00:16;7.93;;;6.50;;
8279;SDS011;8335;42.646;23.380;2022-08-11T04:06:20;6.90;;;6.10;;
8279;SDS011;8335;42.646;23.380;2022-08-11T04:12:18;6.45;;;5.75;;
8279;SDS011;8335;42.646;23.380;2022-08-11T04:15:11;6.30;;;5.55;;
8279;SDS011;8335;42.646;23.380;2022-08-11T04:18:05;7.03;;;5.60;;
8279;SDS011;8335;42.646;23.380;2022-08-11T04:21:09;9.73;;;6.60;;
8279;SDS011;8335;42.646;23.380;2022-08-11T04:24:03;7.03;;;5.55;;
8279;SDS011;8335;42.646;23.380;2022-08-11T04:27:10;7.75;;;6.38;;
8279;SDS011;8335;42.646;23.380;2022-08-11T04:30:04;8.38;;;6.53;;
8279;SDS011;8335;42.646;23.380;2022-08-11T04:35:46;9.95;;;6.25;;
8279;SDS011;8335;42.646;23.380;2022-08-11T04:45:19;9.60;;;5.70;;
8279;SDS011;8335;42.646;23.380;2022-08-11T04:48:21;9.57;;;6.03;;
8279;SDS011;8335;42.646;23.380;2022-08-11T04:55:31;7.28;;;5.05;;
8279;SDS011;8335;42.646;23.380;2022-08-11T04:58:31;9.23;;;4.95;;
8279;SDS011;8335;42.646;23.380;2022-08-11T05:01:35;7.03;;;4.80;;
8279;SDS011;8335;42.646;23.380;2022-08-11T05:04:15;9.98;;;5.65;;
8279;SDS011;8335;42.646;23.380;2022-08-11T05:07:42;5.50;;;4.88;;
8279;SDS011;8335;42.646;23.380;2022-08-11T05:10:42;7.70;;;4.72;;
8279;SDS011;8335;42.646;23.380;2022-08-11T05:13:24;7.80;;;4.82;;
8279;SDS011;8335;42.646;23.380;2022-08-11T05:16:12;6.25;;;4.90;;
8279;SDS011;8335;42.646;23.380;2022-08-11T05:19:06;5.88;;;5.38;;
8279;SDS011;8335;42.646;23.380;2022-08-11T05:21:59;8.88;;;4.30;;
8279;SDS011;8335;42.646;23.380;2022-08-11T05:24:46;8.77;;;4.60;;
8279;SDS011;8335;42.646;23.380;2022-08-11T05:27:36;5.00;;;4.50;;
8279;SDS011;8335;42.646;23.380;2022-08-11T05:30:25;5.82;;;4.20;;
8279;SDS011;8335;42.646;23.380;2022-08-11T05:33:17;5.40;;;4.20;;
8279;SDS011;8335;42.646;23.380;2022-08-11T05:36:07;5.43;;;4.43;;
8279;SDS011;8335;42.646;23.380;2022-08-11T05:38:43;5.43;;;4.72;;
8279;SDS011;8335;42.646;23.380;2022-08-11T05:41:36;9.45;;;4.47;;
8279;SDS011;8335;42.646;23.380;2022-08-11T05:44:23;8.77;;;4.70;;
8279;SDS011;8335;42.646;23.380;2022-08-11T05:47:12;7.07;;;4.45;;
8279;SDS011;8335;42.646;23.380;2022-08-11T05:50:06;6.75;;;4.72;;
8279;SDS011;8335;42.646;23.380;2022-08-11T05:52:52;8.40;;;4.10;;
8279;SDS011;8335;42.646;23.380;2022-08-11T05:55:38;6.70;;;4.80;;
8279;SDS011;8335;42.646;23.380;2022-08-11T05:58:23;6.82;;;4.40;;
8279;SDS011;8335;42.646;23.380;2022-08-11T06:00:51;5.60;;;3.92;;
8279;SDS011;8335;42.646;23.380;2022-08-11T06:03:19;6.32;;;4.57;;
8279;SDS011;8335;42.646;23.380;2022-08-11T06:05:51;5.97;;;4.03;;
8279;SDS011;8335;42.646;23.380;2022-08-11T06:08:18;5.90;;;4.15;;
8279;SDS011;8335;42.646;23.380;2022-08-11T06:10:55;6.60;;;4.38;;
8279;SDS011;8335;42.646;23.380;2022-08-11T06:13:26;4.80;;;4.18;;
8279;SDS011;8335;42.646;23.380;2022-08-11T06:15:54;6.05;;;3.95;;
8279;SDS011;8335;42.646;23.380;2022-08-11T06:18:23;8.15;;;4.22;;
8279;SDS011;8335;42.646;23.380;2022-08-11T06:20:52;4.70;;;3.92;;
8279;SDS011;8335;42.646;23.380;2022-08-11T06:23:22;8.57;;;3.42;;
8279;SDS011;8335;42.646;23.380;2022-08-11T06:25:55;5.65;;;4.47;;
8279;SDS011;8335;42.646;23.380;2022-08-11T06:28:27;11.57;;;3.90;;
8279;SDS011;8335;42.646;23.380;2022-08-11T06:30:58;8.85;;;4.35;;
8279;SDS011;8335;42.646;23.380;2022-08-11T06:33:29;6.60;;;3.78;;
8279;SDS011;8335;42.646;23.380;2022-08-11T06:36:01;5.93;;;3.90;;
8279;SDS011;8335;42.646;23.380;2022-08-11T06:38:40;5.95;;;3.95;;
8279;SDS011;8335;42.646;23.380;2022-08-11T06:41:19;6.65;;;4.00;;
8279;SDS011;8335;42.646;23.380;2022-08-11T06:44:00;6.68;;;3.60;;
8279;SDS011;8335;42.646;23.380;2022-08-11T06:46:42;4.20;;;3.50;;
8279;SDS011;8335;42.646;23.380;2022-08-11T06:49:12;5.97;;;4.10;;
8279;SDS011;8335;42.646;23.380;2022-08-11T06:51:54;8.13;;;4.00;;
8279;SDS011;8335;42.646;23.380;2022-08-11T06:54:25;4.15;;;3.75;;
8279;SDS011;8335;42.646;23.380;2022-08-11T06:56:54;4.53;;;4.00;;
8279;SDS011;8335;42.646;23.380;2022-08-11T06:59:39;4.28;;;3.53;;
8279;SDS011;8335;42.646;23.380;2022-08-11T07:02:27;6.65;;;3.60;;
8279;SDS011;8335;42.646;23.380;2022-08-11T07:04:58;6.03;;;3.50;;
8279;SDS011;8335;42.646;23.380;2022-08-11T07:07:39;4.43;;;3.80;;
8279;SDS011;8335;42.646;23.380;2022-08-11T07:10:45;3.78;;;3.33;;
8279;SDS011;8335;42.646;23.380;2022-08-11T07:13:42;5.18;;;3.33;;
8279;SDS011;8335;42.646;23.380;2022-08-11T07:23:12;6.40;;;3.15;;
8279;SDS011;8335;42.646;23.380;2022-08-11T07:25:58;4.93;;;3.17;;
8279;SDS011;8335;42.646;23.380;2022-08-11T07:28:46;4.18;;;3.05;;
8279;SDS011;8335;42.646;23.380;2022-08-11T07:31:20;3.45;;;3.15;;
8279;SDS011;8335;42.646;23.380;2022-08-11T07:33:56;3.25;;;2.78;;
8279;SDS011;8335;42.646;23.380;2022-08-11T07:36:32;3.17;;;2.88;;
8279;SDS011;8335;42.646;23.380;2022-08-11T07:39:05;5.60;;;3.42;;
8279;SDS011;8335;42.646;23.380;2022-08-11T07:41:36;5.03;;;3.17;;
8279;SDS011;8335;42.646;23.380;2022-08-11T07:44:03;5.47;;;3.10;;
8279;SDS011;8335;42.646;23.380;2022-08-11T07:46:34;5.60;;;3.25;;
8279;SDS011;8335;42.646;23.380;2022-08-11T07:49:22;4.70;;;3.15;;
8279;SDS011;8335;42.646;23.380;2022-08-11T07:52:07;4.65;;;3.80;;
8279;SDS011;8335;42.646;23.380;2022-08-11T07:54:55;4.78;;;3.38;;
8279;SDS011;8335;42.646;23.380;2022-08-11T07:57:25;3.75;;;3.08;;
8279;SDS011;8335;42.646;23.380;2022-08-11T08:00:11;4.32;;;3.00;;
8279;SDS011;8335;42.646;23.380;2022-08-11T08:02:57;4.95;;;2.95;;
8279;SDS011;8335;42.646;23.380;2022-08-11T08:05:42;5.10;;;2.75;;
8279;SDS011;8335;42.646;23.380;2022-08-11T08:08:27;3.95;;;2.85;;
8279;SDS011;8335;42.646;23.380;2022-08-11T08:11:14;3.90;;;2.90;;
8279;SDS011;8335;42.646;23.380;2022-08-11T08:13:58;6.63;;;3.55;;
8279;SDS011;8335;42.646;23.380;2022-08-11T08:16:44;4.47;;;3.47;;
8279;SDS011;8335;42.646;23.380;2022-08-11T08:19:30;3.72;;;3.30;;
8279;SDS011;8335;42.646;23.380;2022-08-11T08:21:57;3.42;;;3.13;;
8279;SDS011;8335;42.646;23.380;2022-08-11T08:24:26;3.60;;;3.05;;
8279;SDS011;8335;42.646;23.380;2022-08-11T08:26:55;4.82;;;3.28;;
8279;SDS011;8335;42.646;23.380;2022-08-11T08:29:23;3.40;;;3.10;;
8279;SDS011;8335;42.646;23.380;2022-08-11T08:32:09;3.80;;;3.50;;
8279;SDS011;8335;42.646;23.380;2022-08-11T08:34:37;3.40;;;3.10;;
8279;SDS011;8335;42.646;23.380;2022-08-11T08:37:05;3.70;;;3.40;;
8279;SDS011;8335;42.646;23.380;2022-08-11T08:39:32;4.40;;;3.25;;
8279;SDS011;8335;42.646;23.380;2022-08-11T08:42:04;3.85;;;3.47;;
8279;SDS011;8335;42.646;23.380;2022-08-11T08:44:35;3.78;;;3.20;;
8279;SDS011;8335;42.646;23.380;2022-08-11T08:47:07;4.95;;;3.45;;
8279;SDS011;8335;42.646;23.380;2022-08-11T08:49:38;3.47;;;3.17;;
8279;SDS011;8335;42.646;23.380;2022-08-11T08:52:13;5.68;;;2.90;;
8279;SDS011;8335;42.646;23.380;2022-08-11T08:54:44;6.20;;;3.30;;
8279;SDS011;8335;42.646;23.380;2022-08-11T08:57:15;6.40;;;3.47;;
8279;SDS011;8335;42.646;23.380;2022-08-11T08:59:45;3.65;;;3.35;;
8279;SDS011;8335;42.646;23.380;2022-08-11T09:02:13;3.70;;;3.40;;
8279;SDS011;8335;42.646;23.380;2022-08-11T09:04:42;6.30;;;3.30;;
8279;SDS011;8335;42.646;23.380;2022-08-11T09:07:11;5.25;;;3.63;;
8279;SDS011;8335;42.646;23.380;2022-08-11T09:09:41;4.10;;;3.72;;
8279;SDS011;8335;42.646;23.380;2022-08-11T09:12:09;4.47;;;3.33;;
8279;SDS011;8335;42.646;23.380;2022-08-11T09:14:39;5.20;;;3.50;;
8279;SDS011;8335;42.646;23.380;2022-08-11T09:17:28;3.60;;;3.30;;
8279;SDS011;8335;42.646;23.380;2022-08-11T09:20:00;4.68;;;3.45;;
8279;SDS011;8335;42.646;23.380;2022-08-11T09:22:31;3.90;;;3.53;;
8279;SDS011;8335;42.646;23.380;2022-08-11T09:25:18;7.80;;;3.60;;
8279;SDS011;8335;42.646;23.380;2022-08-11T09:28:04;5.28;;;3.65;;
8279;SDS011;8335;42.646;23.380;2022-08-11T09:30:36;4.88;;;3.50;;
8279;SDS011;8335;42.646;23.380;2022-08-11T09:33:06;6.18;;;3.53;;
8279;SDS011;8335;42.646;23.380;2022-08-11T09:35:37;4.07;;;3.67;;
8279;SDS011;8335;42.646;23.380;2022-08-11T09:38:08;3.83;;;3.38;;
8279;SDS011;8335;42.646;23.380;2022-08-11T09:40:55;3.90;;;3.50;;
8279;SDS011;8335;42.646;23.380;2022-08-11T09:43:24;3.90;;;3.47;;
8279;SDS011;8335;42.646;23.380;2022-08-11T09:46:10;6.13;;;3.92;;
8279;SDS011;8335;42.646;23.380;2022-08-11T09:48:39;3.83;;;3.53;;
8279;SDS011;8335;42.646;23.380;2022-08-11T09:51:08;3.63;;;3.33;;
8279;SDS011;8335;42.646;23.380;2022-08-11T09:53:37;3.30;;;3.00;;
8279;SDS011;8335;42.646;23.380;2022-08-11T09:56:06;4.65;;;3.72;;
8279;SDS011;8335;42.646;23.380;2022-08-11T09:58:54;6.43;;;3.42;;
8279;SDS011;8335;42.646;23.380;2022-08-11T10:01:25;4.28;;;3.15;;
8279;SDS011;8335;42.646;23.380;2022-08-11T10:03:57;3.88;;;3.47;;
8279;SDS011;8335;42.646;23.380;2022-08-11T10:06:27;7.10;;;3.70;;
8279;SDS011;8335;42.646;23.380;2022-08-11T10:09:12;5.72;;;3.83;;
8279;SDS011;8335;42.646;23.380;2022-08-11T10:11:42;4.80;;;4.00;;
8279;SDS011;8335;42.646;23.380;2022-08-11T10:14:09;5.10;;;3.70;;
8279;SDS011;8335;42.646;23.380;2022-08-11T10:16:55;5.00;;;3.78;;
8279;SDS011;8335;42.646;23.380;2022-08-11T10:19:26;4.40;;;3.78;;
8279;SDS011;8335;42.646;23.380;2022-08-11T10:21:55;5.93;;;3.70;;
8279;SDS011;8335;42.646;23.380;2022-08-11T10:24:42;6.90;;;3.53;;
8279;SDS011;8335;42.646;23.380;2022-08-11T10:27:28;5.18;;;3.90;;
8279;SDS011;8335;42.646;23.380;2022-08-11T10:29:55;4.95;;;4.05;;
8279;SDS011;8335;42.646;23.380;2022-08-11T10:32:41;8.00;;;4.30;;
8279;SDS011;8335;42.646;23.380;2022-08-11T10:35:26;4.40;;;4.00;;
8279;SDS011;8335;42.646;23.380;2022-08-11T10:37:54;5.70;;;3.85;;
8279;SDS011;8335;42.646;23.380;2022-08-11T10:40:22;4.95;;;4.00;;
8279;SDS011;8335;42.646;23.380;2022-08-11T10:42:50;6.35;;;3.97;;
8279;SDS011;8335;42.646;23.380;2022-08-11T10:45:32;6.30;;;4.10;;
8279;SDS011;8335;42.646;23.380;2022-08-11T10:48:19;11.18;;;3.88;;
8279;SDS011;8335;42.646;23.380;2022-08-11T10:50:47;5.32;;;3.67;;
8279;SDS011;8335;42.646;23.380;2022-08-11T10:53:34;4.30;;;3.90;;
8279;SDS011;8335;42.646;23.380;2022-08-11T10:56:20;5.22;;;4.20;;
8279;SDS011;8335;42.646;23.380;2022-08-11T10:59:06;4.68;;;3.90;;
8279;SDS011;8335;42.646;23.380;2022-08-11T11:01:35;8.82;;;3.92;;
8279;SDS011;8335;42.646;23.380;2022-08-11T11:04:10;4.32;;;3.75;;
8279;SDS011;8335;42.646;23.380;2022-08-11T11:06:43;4.25;;;3.85;;
8279;SDS011;8335;42.646;23.380;2022-08-11T11:09:17;4.05;;;3.67;;
8279;SDS011;8335;42.646;23.380;2022-08-11T11:11:50;4.65;;;3.80;;
8279;SDS011;8335;42.646;23.380;2022-08-11T11:14:39;5.50;;;3.90;;
8279;SDS011;8335;42.646;23.380;2022-08-11T11:17:30;5.30;;;3.92;;
8279;SDS011;8335;42.646;23.380;2022-08-11T11:20:24;7.28;;;4.25;;
8279;SDS011;8335;42.646;23.380;2022-08-11T11:22:54;4.38;;;3.80;;
8279;SDS011;8335;42.646;23.380;2022-08-11T11:25:28;3.90;;;3.60;;
8279;SDS011;8335;42.646;23.380;2022-08-11T11:28:08;4.88;;;4.00;;
8279;SDS011;8335;42.646;23.380;2022-08-11T11:30:44;7.75;;;4.15;;
8279;SDS011;8335;42.646;23.380;2022-08-11T11:33:23;6.03;;;3.70;;
8279;SDS011;8335;42.646;23.380;2022-08-11T11:36:08;4.47;;;3.60;;
8279;SDS011;8335;42.646;23.380;2022-08-11T11:38:42;5.05;;;3.92;;
8279;SDS011;8335;42.646;23.380;2022-08-11T11:41:10;5.78;;;4.60;;
8279;SDS011;8335;42.646;23.380;2022-08-11T11:43:52;8.00;;;4.03;;
8279;SDS011;8335;42.646;23.380;2022-08-11T11:46:21;5.65;;;3.92;;
8279;SDS011;8335;42.646;23.380;2022-08-11T11:48:51;11.48;;;3.90;;
8279;SDS011;8335;42.646;23.380;2022-08-11T11:51:20;5.72;;;3.72;;
8279;SDS011;8335;42.646;23.380;2022-08-11T11:53:48;11.07;;;4.25;;
8279;SDS011;8335;42.646;23.380;2022-08-11T11:56:16;9.02;;;4.07;;
8279;SDS011;8335;42.646;23.380;2022-08-11T11:58:47;6.15;;;3.85;;
8279;SDS011;8335;42.646;23.380;2022-08-11T12:01:32;4.50;;;3.60;;
8279;SDS011;8335;42.646;23.380;2022-08-11T12:03:59;4.90;;;3.45;;
8279;SDS011;8335;42.646;23.380;2022-08-11T12:06:32;9.63;;;4.50;;
8279;SDS011;8335;42.646;23.380;2022-08-11T12:09:00;8.82;;;4.28;;
8279;SDS011;8335;42.646;23.380;2022-08-11T12:11:27;6.68;;;4.05;;
8279;SDS011;8335;42.646;23.380;2022-08-11T12:14:14;5.95;;;4.05;;
8279;SDS011;8335;42.646;23.380;2022-08-11T12:16:44;8.13;;;4.70;;
8279;SDS011;8335;42.646;23.380;2022-08-11T12:19:12;5.88;;;4.15;;
8279;SDS011;8335;42.646;23.380;2022-08-11T12:21:41;7.90;;;4.75;;
8279;SDS011;8335;42.646;23.380;2022-08-11T12:27:44;5.72;;;4.25;;
8279;SDS011;8335;42.646;23.380;2022-08-11T12:30:11;5.63;;;4.25;;
8279;SDS011;8335;42.646;23.380;2022-08-11T12:32:39;5.68;;;4.10;;
8279;SDS011;8335;42.646;23.380;2022-08-11T12:35:08;6.30;;;4.00;;
8279;SDS011;8335;42.646;23.380;2022-08-11T12:37:39;5.75;;;3.97;;
8279;SDS011;8335;42.646;23.380;2022-08-11T12:40:10;6.85;;;4.13;;
8279;SDS011;8335;42.646;23.380;2022-08-11T12:42:56;7.60;;;4.28;;
8279;SDS011;8335;42.646;23.380;2022-08-11T12:45:44;5.97;;;4.30;;
8279;SDS011;8335;42.646;23.380;2022-08-11T12:48:14;6.32;;;4.38;;
8279;SDS011;8335;42.646;23.380;2022-08-11T12:51:02;6.32;;;4.07;;
8279;SDS011;8335;42.646;23.380;2022-08-11T12:53:54;8.30;;;4.43;;
8279;SDS011;8335;42.646;23.380;2022-08-11T12:56:24;5.18;;;4.18;;
8279;SDS011;8335;42.646;23.380;2022-08-11T12:59:15;5.43;;;4.60;;
8279;SDS011;8335;42.646;23.380;2022-08-11T13:02:00;4.80;;;3.65;;
8279;SDS011;8335;42.646;23.380;2022-08-11T13:04:45;5.93;;;3.92;;
8279;SDS011;8335;42.646;23.380;2022-08-11T13:07:23;4.88;;;3.78;;
8279;SDS011;8335;42.646;23.380;2022-08-11T13:09:52;4.70;;;4.20;;
8279;SDS011;8335;42.646;23.380;2022-08-11T13:12:21;6.80;;;4.03;;
8279;SDS011;8335;42.646;23.380;2022-08-11T13:15:07;6.72;;;3.75;;
8279;SDS011;8335;42.646;23.380;2022-08-11T13:17:36;5.60;;;3.30;;
8279;SDS011;8335;42.646;23.380;2022-08-11T13:20:04;4.13;;;3.70;;
8279;SDS011;8335;42.646;23.380;2022-08-11T13:22:34;5.82;;;4.07;;
8279;SDS011;8335;42.646;23.380;2022-08-11T13:25:04;4.35;;;3.70;;
8279;SDS011;8335;42.646;23.380;2022-08-11T13:27:32;5.38;;;3.88;;
8279;SDS011;8335;42.646;23.380;2022-08-11T13:30:00;5.63;;;3.80;;
8279;SDS011;8335;42.646;23.380;2022-08-11T13:32:45;5.68;;;3.85;;
8279;SDS011;8335;42.646;23.380;2022-08-11T13:35:14;4.95;;;3.83;;
8279;SDS011;8335;42.646;23.380;2022-08-11T13:37:41;5.28;;;3.65;;
8279;SDS011;8335;42.646;23.380;2022-08-11T13:40:12;10.75;;;3.65;;
8279;SDS011;8335;42.646;23.380;2022-08-11T13:42:42;4.70;;;3.70;;
8279;SDS011;8335;42.646;23.380;2022-08-11T13:45:10;5.15;;;3.72;;
8279;SDS011;8335;42.646;23.380;2022-08-11T13:47:37;4.25;;;3.70;;
8279;SDS011;8335;42.646;23.380;2022-08-11T13:50:07;4.22;;;3.40;;
8279;SDS011;8335;42.646;23.380;2022-08-11T13:52:35;6.25;;;3.80;;
8279;SDS011;8335;42.646;23.380;2022-08-11T13:55:04;5.43;;;3.33;;
8279;SDS011;8335;42.646;23.380;2022-08-11T13:57:35;4.38;;;3.50;;
8279;SDS011;8335;42.646;23.380;2022-08-11T14:00:05;6.45;;;3.60;;
8279;SDS011;8335;42.646;23.380;2022-08-11T14:02:40;4.05;;;3.55;;
8279;SDS011;8335;42.646;23.380;2022-08-11T14:05:09;3.63;;;3.20;;
8279;SDS011;8335;42.646;23.380;2022-08-11T14:07:41;5.20;;;3.65;;
8279;SDS011;8335;42.646;23.380;2022-08-11T14:10:13;4.32;;;3.53;;
8279;SDS011;8335;42.646;23.380;2022-08-11T14:12:45;3.95;;;3.30;;
8279;SDS011;8335;42.646;23.380;2022-08-11T14:15:34;6.45;;;3.45;;
8279;SDS011;8335;42.646;23.380;2022-08-11T14:18:05;4.25;;;3.20;;
8279;SDS011;8335;42.646;23.380;2022-08-11T14:20:33;5.53;;;3.10;;
8279;SDS011;8335;42.646;23.380;2022-08-11T14:23:21;3.50;;;3.20;;
8279;SDS011;8335;42.646;23.380;2022-08-11T14:25:52;5.72;;;3.58;;
8279;SDS011;8335;42.646;23.380;2022-08-11T14:28:38;3.75;;;3.03;;
8279;SDS011;8335;42.646;23.380;2022-08-11T14:31:06;3.22;;;2.92;;
8279;SDS011;8335;42.646;23.380;2022-08-11T14:33:33;6.30;;;3.70;;
8279;SDS011;8335;42.646;23.380;2022-08-11T14:36:01;3.70;;;3.40;;
8279;SDS011;8335;42.646;23.380;2022-08-11T14:38:31;3.97;;;3.08;;
8279;SDS011;8335;42.646;23.380;2022-08-11T14:40:58;3.40;;;3.10;;
8279;SDS011;8335;42.646;23.380;2022-08-11T14:43:44;4.18;;;3.47;;
8279;SDS011;8335;42.646;23.380;2022-08-11T14:46:28;7.20;;;3.60;;
8279;SDS011;8335;42.646;23.380;2022-08-11T14:49:14;3.88;;;3.42;;
8279;SDS011;8335;42.646;23.380;2022-08-11T14:51:41;5.15;;;3.35;;
8279;SDS011;8335;42.646;23.380;2022-08-11T14:54:08;6.43;;;3.13;;
8279;SDS011;8335;42.646;23.380;2022-08-11T14:56:53;6.28;;;3.20;;
8279;SDS011;8335;42.646;23.380;2022-08-11T14:59:22;5.70;;;3.75;;
8279;SDS011;8335;42.646;23.380;2022-08-11T15:01:49;6.00;;;4.15;;
8279;SDS011;8335;42.646;23.380;2022-08-11T15:04:34;4.20;;;3.80;;
8279;SDS011;8335;42.646;23.380;2022-08-11T15:07:02;4.45;;;3.67;;
8279;SDS011;8335;42.646;23.380;2022-08-11T15:09:29;5.10;;;4.15;;
8279;SDS011;8335;42.646;23.380;2022-08-11T15:11:57;4.05;;;3.55;;
8279;SDS011;8335;42.646;23.380;2022-08-11T15:14:41;4.40;;;4.00;;
8279;SDS011;8335;42.646;23.380;2022-08-11T15:17:27;5.03;;;4.18;;
8279;SDS011;8335;42.646;23.380;2022-08-11T15:19:58;6.45;;;3.70;;
8279;SDS011;8335;42.646;23.380;2022-08-11T15:22:45;5.88;;;3.83;;
8279;SDS011;8335;42.646;23.380;2022-08-11T15:25:29;3.67;;;3.30;;
8279;SDS011;8335;42.646;23.380;2022-08-11T15:27:58;4.60;;;4.20;;
8279;SDS011;8335;42.646;23.380;2022-08-11T15:30:46;4.80;;;4.20;;
8279;SDS011;8335;42.646;23.380;2022-08-11T15:33:35;4.00;;;3.60;;
8279;SDS011;8335;42.646;23.380;2022-08-11T15:36:22;4.10;;;3.80;;
8279;SDS011;8335;42.646;23.380;2022-08-11T15:39:11;5.85;;;3.78;;
8279;SDS011;8335;42.646;23.380;2022-08-11T15:41:42;4.78;;;3.65;;
8279;SDS011;8335;42.646;23.380;2022-08-11T15:44:32;6.95;;;3.95;;
8279;SDS011;8335;42.646;23.380;2022-08-11T15:47:22;6.10;;;3.72;;
8279;SDS011;8335;42.646;23.380;2022-08-11T15:49:53;4.35;;;3.95;;
8279;SDS011;8335;42.646;23.380;2022-08-11T15:52:27;9.52;;;5.65;;
8279;SDS011;8335;42.646;23.380;2022-08-11T15:54:58;5.40;;;3.95;;
8279;SDS011;8335;42.646;23.380;2022-08-11T15:57:26;4.25;;;3.60;;
8279;SDS011;8335;42.646;23.380;2022-08-11T16:00:11;5.88;;;3.47;;
8279;SDS011;8335;42.646;23.380;2022-08-11T16:02:58;4.20;;;3.60;;
8279;SDS011;8335;42.646;23.380;2022-08-11T16:05:45;4.60;;;3.42;;
8279;SDS011;8335;42.646;23.380;2022-08-11T16:08:15;3.75;;;3.33;;
8279;SDS011;8335;42.646;23.380;2022-08-11T16:10:46;5.95;;;3.75;;
8279;SDS011;8335;42.646;23.380;2022-08-11T16:13:14;7.32;;;4.10;;
8279;SDS011;8335;42.646;23.380;2022-08-11T16:15:59;3.75;;;3.40;;
8279;SDS011;8335;42.646;23.380;2022-08-11T16:18:42;5.97;;;3.95;;
8279;SDS011;8335;42.646;23.380;2022-08-11T16:21:17;4.85;;;3.50;;
8279;SDS011;8335;42.646;23.380;2022-08-11T16:23:48;7.70;;;4.15;;
8279;SDS011;8335;42.646;23.380;2022-08-11T16:26:19;4.15;;;3.70;;
8279;SDS011;8335;42.646;23.380;2022-08-11T16:28:48;4.28;;;3.72;;
8279;SDS011;8335;42.646;23.380;2022-08-11T16:31:17;4.78;;;3.55;;
8279;SDS011;8335;42.646;23.380;2022-08-11T16:33:47;5.80;;;3.30;;
8279;SDS011;8335;42.646;23.380;2022-08-11T16:36:16;3.70;;;3.35;;
8279;SDS011;8335;42.646;23.380;2022-08-11T16:39:02;3.97;;;3.60;;
8279;SDS011;8335;42.646;23.380;2022-08-11T16:41:31;6.47;;;3.58;;
8279;SDS011;8335;42.646;23.380;2022-08-11T16:44:17;5.75;;;3.90;;
8279;SDS011;8335;42.646;23.380;2022-08-11T16:47:02;6.97;;;4.68;;
8279;SDS011;8335;42.646;23.380;2022-08-11T16:49:32;3.80;;;3.42;;
8279;SDS011;8335;42.646;23.380;2022-08-11T16:52:01;9.00;;;4.50;;
8279;SDS011;8335;42.646;23.380;2022-08-11T16:54:30;5.93;;;3.55;;
8279;SDS011;8335;42.646;23.380;2022-08-11T16:56:59;5.53;;;3.72;;
8279;SDS011;8335;42.646;23.380;2022-08-11T16:59:48;4.30;;;3.60;;
8279;SDS011;8335;42.646;23.380;2022-08-11T17:02:16;3.92;;;3.50;;
8279;SDS011;8335;42.646;23.380;2022-08-11T17:05:02;3.70;;;3.30;;
8279;SDS011;8335;42.646;23.380;2022-08-11T17:07:52;6.90;;;3.92;;